sensor_id;sensor_type;location;lat;lon;timestamp;pressure;altitude;pressure_sealevel;temperature;humidity
6024;BME280;3040;42.654;23.296;2022-11-27T00:00:57;95145.34;;;5.35;72.36
6024;BME280;3040;42.654;23.296;2022-11-27T00:03:24;95152.97;;;5.36;72.47
6024;BME280;3040;42.654;23.296;2022-11-27T00:05:53;95149.03;;;5.33;72.37
6024;BME280;3040;42.654;23.296;2022-11-27T00:08:21;95151.28;;;5.21;72.35
6024;BME280;3040;42.654;23.296;2022-11-27T00:10:48;95161.38;;;5.14;73.35
6024;BME280;3040;42.654;23.296;2022-11-27T00:13:15;95155.88;;;5.11;73.19
6024;BME280;3040;42.654;23.296;2022-11-27T00:15:43;95155.09;;;5.10;73.31
6024;BME280;3040;42.654;23.296;2022-11-27T00:18:11;95151.59;;;5.15;73.39
6024;BME280;3040;42.654;23.296;2022-11-27T00:20:38;95157.66;;;5.15;73.62
6024;BME280;3040;42.654;23.296;2022-11-27T00:23:04;95162.88;;;5.20;71.88
6024;BME280;3040;42.654;23.296;2022-11-27T00:25:31;95160.81;;;5.17;71.85
6024;BME280;3040;42.654;23.296;2022-11-27T00:27:58;95162.94;;;5.15;71.18
6024;BME280;3040;42.654;23.296;2022-11-27T00:30:25;95163.50;;;5.12;71.21
6024;BME280;3040;42.654;23.296;2022-11-27T00:32:53;95161.47;;;5.04;72.31
6024;BME280;3040;42.654;23.296;2022-11-27T00:35:20;95166.22;;;5.02;72.91
6024;BME280;3040;42.654;23.296;2022-11-27T00:37:47;95174.72;;;4.99;73.32
6024;BME280;3040;42.654;23.296;2022-11-27T00:40:14;95164.97;;;4.95;73.80
6024;BME280;3040;42.654;23.296;2022-11-27T00:42:41;95169.31;;;4.85;74.08
6024;BME280;3040;42.654;23.296;2022-11-27T00:45:08;95157.56;;;4.73;73.61
6024;BME280;3040;42.654;23.296;2022-11-27T00:47:35;95152.38;;;4.63;74.70
6024;BME280;3040;42.654;23.296;2022-11-27T00:50:05;95172.31;;;4.74;74.41
6024;BME280;3040;42.654;23.296;2022-11-27T00:52:32;95179.19;;;4.70;72.39
6024;BME280;3040;42.654;23.296;2022-11-27T00:54:58;95167.56;;;4.71;73.53
6024;BME280;3040;42.654;23.296;2022-11-27T00:57:25;95176.00;;;4.73;73.94
6024;BME280;3040;42.654;23.296;2022-11-27T00:59:52;95167.03;;;4.74;74.18
6024;BME280;3040;42.654;23.296;2022-11-27T01:02:19;95175.69;;;4.79;73.05
6024;BME280;3040;42.654;23.296;2022-11-27T01:04:46;95168.47;;;4.27;73.59
6024;BME280;3040;42.654;23.296;2022-11-27T01:07:14;95170.13;;;2.69;81.11
6024;BME280;3040;42.654;23.296;2022-11-27T01:09:41;95190.34;;;2.49;83.59
6024;BME280;3040;42.654;23.296;2022-11-27T01:12:08;95160.06;;;1.65;88.93
6024;BME280;3040;42.654;23.296;2022-11-27T01:14:35;95141.72;;;1.70;90.37
6024;BME280;3040;42.654;23.296;2022-11-27T01:17:02;95150.19;;;1.92;89.46
6024;BME280;3040;42.654;23.296;2022-11-27T01:19:29;95151.22;;;1.96;90.20
6024;BME280;3040;42.654;23.296;2022-11-27T01:21:56;95146.00;;;2.37;87.53
6024;BME280;3040;42.654;23.296;2022-11-27T01:24:24;95149.16;;;2.34;87.46
6024;BME280;3040;42.654;23.296;2022-11-27T01:26:51;95146.47;;;2.95;85.81
6024;BME280;3040;42.654;23.296;2022-11-27T01:29:18;95142.25;;;2.99;83.48
6024;BME280;3040;42.654;23.296;2022-11-27T01:31:45;95140.63;;;3.08;84.69
6024;BME280;3040;42.654;23.296;2022-11-27T01:34:14;95144.50;;;3.25;83.02
6024;BME280;3040;42.654;23.296;2022-11-27T01:36:41;95140.00;;;3.41;82.63
6024;BME280;3040;42.654;23.296;2022-11-27T01:39:11;95139.91;;;3.61;80.76
6024;BME280;3040;42.654;23.296;2022-11-27T01:41:41;95126.94;;;3.75;79.67
6024;BME280;3040;42.654;23.296;2022-11-27T01:47:15;95127.75;;;3.71;80.39
6024;BME280;3040;42.654;23.296;2022-11-27T01:49:50;95129.38;;;4.05;78.53
6024;BME280;3040;42.654;23.296;2022-11-27T01:52:20;95068.72;;;3.87;76.89
6024;BME280;3040;42.654;23.296;2022-11-27T01:54:51;95132.63;;;4.31;75.30
6024;BME280;3040;42.654;23.296;2022-11-27T01:57:24;95017.28;;;3.71;75.13
6024;BME280;3040;42.654;23.296;2022-11-27T01:59:53;95128.28;;;4.45;74.87
6024;BME280;3040;42.654;23.296;2022-11-27T02:02:21;95093.66;;;4.28;74.55
6024;BME280;3040;42.654;23.296;2022-11-27T02:04:48;95127.09;;;4.62;74.40
6024;BME280;3040;42.654;23.296;2022-11-27T02:07:15;95127.09;;;4.62;74.15
6024;BME280;3040;42.654;23.296;2022-11-27T02:09:42;95134.91;;;4.72;74.79
6024;BME280;3040;42.654;23.296;2022-11-27T02:12:15;95137.00;;;4.75;74.33
6024;BME280;3040;42.654;23.296;2022-11-27T02:14:56;95133.63;;;4.69;74.24
6024;BME280;3040;42.654;23.296;2022-11-27T02:17:31;95133.88;;;4.68;74.59
6024;BME280;3040;42.654;23.296;2022-11-27T02:20:12;95131.78;;;4.65;75.49
6024;BME280;3040;42.654;23.296;2022-11-27T02:25:40;95132.25;;;4.72;75.60
6024;BME280;3040;42.654;23.296;2022-11-27T02:28:21;95133.56;;;4.74;75.99
6024;BME280;3040;42.654;23.296;2022-11-27T02:30:56;95134.81;;;4.82;76.38
6024;BME280;3040;42.654;23.296;2022-11-27T02:33:26;95129.50;;;4.87;75.71
6024;BME280;3040;42.654;23.296;2022-11-27T02:35:58;95114.81;;;4.81;75.47
6024;BME280;3040;42.654;23.296;2022-11-27T02:38:30;95147.00;;;5.02;75.07
6024;BME280;3040;42.654;23.296;2022-11-27T02:41:03;95147.22;;;5.05;75.17
6024;BME280;3040;42.654;23.296;2022-11-27T02:43:35;95140.59;;;5.08;75.69
6024;BME280;3040;42.654;23.296;2022-11-27T02:46:07;95112.78;;;4.97;75.55
6024;BME280;3040;42.654;23.296;2022-11-27T02:48:37;95141.31;;;5.18;75.19
6024;BME280;3040;42.654;23.296;2022-11-27T02:51:07;95135.78;;;5.15;75.13
6024;BME280;3040;42.654;23.296;2022-11-27T02:53:37;95157.06;;;5.23;75.04
6024;BME280;3040;42.654;23.296;2022-11-27T02:56:07;95152.78;;;5.27;75.80
6024;BME280;3040;42.654;23.296;2022-11-27T02:58:36;95128.31;;;5.22;75.12
6024;BME280;3040;42.654;23.296;2022-11-27T03:01:05;95135.72;;;5.20;75.13
6024;BME280;3040;42.654;23.296;2022-11-27T03:03:37;95141.72;;;5.25;75.48
6024;BME280;3040;42.654;23.296;2022-11-27T03:06:10;95139.53;;;5.09;75.51
6024;BME280;3040;42.654;23.296;2022-11-27T03:08:41;95146.13;;;5.11;76.46
6024;BME280;3040;42.654;23.296;2022-11-27T03:11:13;95116.31;;;4.87;76.31
6024;BME280;3040;42.654;23.296;2022-11-27T03:13:42;95050.41;;;4.39;76.42
6024;BME280;3040;42.654;23.296;2022-11-27T03:16:15;95158.25;;;5.12;76.63
6024;BME280;3040;42.654;23.296;2022-11-27T03:18:47;95153.50;;;5.09;76.71
6024;BME280;3040;42.654;23.296;2022-11-27T03:21:27;95148.25;;;5.09;76.94
6024;BME280;3040;42.654;23.296;2022-11-27T03:23:56;95146.66;;;5.08;77.19
6024;BME280;3040;42.654;23.296;2022-11-27T03:26:23;95154.50;;;5.13;77.17
6024;BME280;3040;42.654;23.296;2022-11-27T03:28:51;95170.00;;;5.20;76.59
6024;BME280;3040;42.654;23.296;2022-11-27T03:31:20;95153.97;;;5.16;76.52
6024;BME280;3040;42.654;23.296;2022-11-27T03:33:48;95152.50;;;5.05;77.07
6024;BME280;3040;42.654;23.296;2022-11-27T03:36:17;95162.72;;;4.54;79.54
6024;BME280;3040;42.654;23.296;2022-11-27T03:38:46;95024.97;;;3.96;78.42
6024;BME280;3040;42.654;23.296;2022-11-27T03:41:18;95149.88;;;4.76;79.40
6024;BME280;3040;42.654;23.296;2022-11-27T03:43:56;95147.56;;;4.99;78.86
6024;BME280;3040;42.654;23.296;2022-11-27T03:46:32;95131.75;;;4.99;78.21
6024;BME280;3040;42.654;23.296;2022-11-27T03:49:10;95150.28;;;5.17;77.72
6024;BME280;3040;42.654;23.296;2022-11-27T03:51:43;95148.06;;;5.24;77.51
6024;BME280;3040;42.654;23.296;2022-11-27T03:54:18;95140.31;;;5.33;76.66
6024;BME280;3040;42.654;23.296;2022-11-27T03:56:54;95145.19;;;5.45;76.63
6024;BME280;3040;42.654;23.296;2022-11-27T03:59:26;95143.00;;;5.52;75.38
6024;BME280;3040;42.654;23.296;2022-11-27T04:01:56;95143.72;;;5.57;75.57
6024;BME280;3040;42.654;23.296;2022-11-27T04:04:24;95139.25;;;5.58;75.05
6024;BME280;3040;42.654;23.296;2022-11-27T04:06:51;95121.88;;;5.33;75.48
6024;BME280;3040;42.654;23.296;2022-11-27T04:09:18;95147.56;;;5.46;75.41
6024;BME280;3040;42.654;23.296;2022-11-27T04:11:45;95128.72;;;5.34;75.64
6024;BME280;3040;42.654;23.296;2022-11-27T04:14:12;95101.69;;;5.23;76.06
6024;BME280;3040;42.654;23.296;2022-11-27T04:16:38;95137.00;;;5.46;75.26
6024;BME280;3040;42.654;23.296;2022-11-27T04:19:06;95128.09;;;5.42;75.26
6024;BME280;3040;42.654;23.296;2022-11-27T04:21:33;95127.78;;;5.44;75.00
6024;BME280;3040;42.654;23.296;2022-11-27T04:24:00;95133.00;;;5.49;75.31
6024;BME280;3040;42.654;23.296;2022-11-27T04:26:27;95129.53;;;5.53;74.71
6024;BME280;3040;42.654;23.296;2022-11-27T04:28:54;95133.97;;;5.58;74.50
6024;BME280;3040;42.654;23.296;2022-11-27T04:31:21;95120.06;;;5.52;73.90
6024;BME280;3040;42.654;23.296;2022-11-27T04:33:47;95129.69;;;5.62;74.59
6024;BME280;3040;42.654;23.296;2022-11-27T04:36:16;95134.41;;;5.65;74.84
6024;BME280;3040;42.654;23.296;2022-11-27T04:38:42;95140.69;;;5.69;73.79
6024;BME280;3040;42.654;23.296;2022-11-27T04:41:09;95147.53;;;5.70;74.45
6024;BME280;3040;42.654;23.296;2022-11-27T04:43:36;95155.66;;;5.73;74.16
6024;BME280;3040;42.654;23.296;2022-11-27T04:46:03;95152.53;;;5.71;73.45
6024;BME280;3040;42.654;23.296;2022-11-27T04:48:30;95152.81;;;5.70;73.85
6024;BME280;3040;42.654;23.296;2022-11-27T04:50:57;95145.16;;;5.68;74.51
6024;BME280;3040;42.654;23.296;2022-11-27T04:53:25;95151.25;;;5.69;74.30
6024;BME280;3040;42.654;23.296;2022-11-27T04:55:51;95159.16;;;5.69;74.02
6024;BME280;3040;42.654;23.296;2022-11-27T04:58:18;95151.81;;;5.66;73.98
6024;BME280;3040;42.654;23.296;2022-11-27T05:00:45;95150.16;;;5.70;73.73
6024;BME280;3040;42.654;23.296;2022-11-27T05:03:12;95146.88;;;5.59;74.62
6024;BME280;3040;42.654;23.296;2022-11-27T05:05:39;95152.94;;;5.60;74.68
6024;BME280;3040;42.654;23.296;2022-11-27T05:08:06;95118.09;;;5.39;74.69
6024;BME280;3040;42.654;23.296;2022-11-27T05:10:34;95142.72;;;5.53;75.20
6024;BME280;3040;42.654;23.296;2022-11-27T05:13:01;95050.38;;;4.92;75.15
6024;BME280;3040;42.654;23.296;2022-11-27T05:15:27;95137.00;;;5.46;75.03
6024;BME280;3040;42.654;23.296;2022-11-27T05:17:54;95138.72;;;5.56;74.92
6024;BME280;3040;42.654;23.296;2022-11-27T05:20:21;95140.81;;;5.59;74.73
6024;BME280;3040;42.654;23.296;2022-11-27T05:22:48;95145.31;;;5.58;74.20
6024;BME280;3040;42.654;23.296;2022-11-27T05:25:15;95142.63;;;5.40;74.78
6024;BME280;3040;42.654;23.296;2022-11-27T05:27:43;95148.44;;;5.37;75.30
6024;BME280;3040;42.654;23.296;2022-11-27T05:30:10;95156.38;;;5.37;75.99
6024;BME280;3040;42.654;23.296;2022-11-27T05:32:37;95162.41;;;5.42;75.35
6024;BME280;3040;42.654;23.296;2022-11-27T05:35:04;95157.88;;;5.43;75.10
6024;BME280;3040;42.654;23.296;2022-11-27T05:37:31;95157.84;;;5.48;74.89
6024;BME280;3040;42.654;23.296;2022-11-27T05:39:58;95134.44;;;5.41;74.84
6024;BME280;3040;42.654;23.296;2022-11-27T05:42:25;95145.25;;;5.40;74.45
6024;BME280;3040;42.654;23.296;2022-11-27T05:44:53;95167.66;;;5.42;75.11
6024;BME280;3040;42.654;23.296;2022-11-27T05:47:20;95168.56;;;5.32;75.29
6024;BME280;3040;42.654;23.296;2022-11-27T05:49:47;95097.34;;;4.85;75.38
6024;BME280;3040;42.654;23.296;2022-11-27T05:52:14;95144.22;;;5.17;75.51
6024;BME280;3040;42.654;23.296;2022-11-27T05:54:40;95160.56;;;5.38;75.54
6024;BME280;3040;42.654;23.296;2022-11-27T05:57:07;95163.16;;;5.43;75.60
6024;BME280;3040;42.654;23.296;2022-11-27T05:59:34;95168.66;;;5.46;74.99
6024;BME280;3040;42.654;23.296;2022-11-27T06:02:02;95167.09;;;5.45;74.98
6024;BME280;3040;42.654;23.296;2022-11-27T06:04:31;95176.34;;;5.43;75.39
6024;BME280;3040;42.654;23.296;2022-11-27T06:06:58;95181.63;;;5.43;74.53
6024;BME280;3040;42.654;23.296;2022-11-27T06:09:25;95182.97;;;5.40;75.25
6024;BME280;3040;42.654;23.296;2022-11-27T06:11:52;95159.47;;;5.20;75.49
6024;BME280;3040;42.654;23.296;2022-11-27T06:14:19;95174.72;;;5.47;75.35
6024;BME280;3040;42.654;23.296;2022-11-27T06:16:45;95174.09;;;5.55;75.18
6024;BME280;3040;42.654;23.296;2022-11-27T06:19:14;95188.78;;;5.61;75.24
6024;BME280;3040;42.654;23.296;2022-11-27T06:21:41;95184.03;;;5.63;74.90
6024;BME280;3040;42.654;23.296;2022-11-27T06:24:07;95183.47;;;5.66;75.34
6024;BME280;3040;42.654;23.296;2022-11-27T06:26:34;95184.28;;;5.66;74.84
6024;BME280;3040;42.654;23.296;2022-11-27T06:29:01;95195.25;;;5.73;74.91
6024;BME280;3040;42.654;23.296;2022-11-27T06:31:30;95171.34;;;5.65;74.86
6024;BME280;3040;42.654;23.296;2022-11-27T06:33:57;95180.63;;;5.81;75.07
6024;BME280;3040;42.654;23.296;2022-11-27T06:36:28;95181.44;;;5.82;74.50
6024;BME280;3040;42.654;23.296;2022-11-27T06:38:56;95182.34;;;5.72;74.56
6024;BME280;3040;42.654;23.296;2022-11-27T06:41:23;95184.41;;;5.75;74.61
6024;BME280;3040;42.654;23.296;2022-11-27T06:43:51;95186.50;;;5.78;74.58
6024;BME280;3040;42.654;23.296;2022-11-27T06:46:20;95188.69;;;5.71;74.59
6024;BME280;3040;42.654;23.296;2022-11-27T06:48:49;95191.09;;;5.67;75.24
6024;BME280;3040;42.654;23.296;2022-11-27T06:51:17;95181.63;;;5.66;75.47
6024;BME280;3040;42.654;23.296;2022-11-27T06:53:46;95185.47;;;5.74;75.60
6024;BME280;3040;42.654;23.296;2022-11-27T06:56:14;95182.84;;;5.74;75.42
6024;BME280;3040;42.654;23.296;2022-11-27T06:58:41;95180.84;;;5.85;75.35
6024;BME280;3040;42.654;23.296;2022-11-27T07:01:12;95191.69;;;5.88;75.16
6024;BME280;3040;42.654;23.296;2022-11-27T07:03:39;95192.13;;;5.95;74.17
6024;BME280;3040;42.654;23.296;2022-11-27T07:06:07;95177.16;;;5.86;74.32
6024;BME280;3040;42.654;23.296;2022-11-27T07:08:35;95187.63;;;5.96;74.18
6024;BME280;3040;42.654;23.296;2022-11-27T07:11:05;95180.97;;;5.98;74.48
6024;BME280;3040;42.654;23.296;2022-11-27T07:13:33;95179.84;;;6.04;73.51
6024;BME280;3040;42.654;23.296;2022-11-27T07:16:00;95181.34;;;6.10;73.76
6024;BME280;3040;42.654;23.296;2022-11-27T07:18:27;95181.56;;;6.14;73.44
6024;BME280;3040;42.654;23.296;2022-11-27T07:20:54;95178.56;;;6.21;73.63
6024;BME280;3040;42.654;23.296;2022-11-27T07:23:21;95178.78;;;6.24;73.07
6024;BME280;3040;42.654;23.296;2022-11-27T07:25:48;95175.25;;;6.29;73.35
6024;BME280;3040;42.654;23.296;2022-11-27T07:28:16;95176.28;;;6.33;73.01
6024;BME280;3040;42.654;23.296;2022-11-27T07:30:43;95172.16;;;6.27;73.09
6024;BME280;3040;42.654;23.296;2022-11-27T07:33:10;95185.19;;;6.37;71.86
6024;BME280;3040;42.654;23.296;2022-11-27T07:35:37;95189.34;;;6.43;72.53
6024;BME280;3040;42.654;23.296;2022-11-27T07:38:03;95167.13;;;6.44;71.83
6024;BME280;3040;42.654;23.296;2022-11-27T07:40:30;95181.91;;;6.45;71.95
6024;BME280;3040;42.654;23.296;2022-11-27T07:42:57;95180.91;;;6.41;72.05
6024;BME280;3040;42.654;23.296;2022-11-27T07:45:25;95183.34;;;6.37;72.59
6024;BME280;3040;42.654;23.296;2022-11-27T07:47:52;95179.72;;;6.15;72.34
6024;BME280;3040;42.654;23.296;2022-11-27T07:50:19;95182.72;;;6.27;72.99
6024;BME280;3040;42.654;23.296;2022-11-27T07:52:46;95152.63;;;6.04;73.93
6024;BME280;3040;42.654;23.296;2022-11-27T07:55:13;95174.47;;;6.28;73.91
6024;BME280;3040;42.654;23.296;2022-11-27T07:57:39;95178.84;;;6.38;72.92
6024;BME280;3040;42.654;23.296;2022-11-27T08:00:08;95171.63;;;6.43;72.13
6024;BME280;3040;42.654;23.296;2022-11-27T08:02:36;95167.13;;;6.44;72.31
6024;BME280;3040;42.654;23.296;2022-11-27T08:05:03;95176.03;;;6.48;71.73
6024;BME280;3040;42.654;23.296;2022-11-27T08:07:30;95078.66;;;5.90;71.51
6024;BME280;3040;42.654;23.296;2022-11-27T08:09:57;95171.41;;;6.40;71.43
6024;BME280;3040;42.654;23.296;2022-11-27T08:12:25;95181.97;;;6.40;71.65
6024;BME280;3040;42.654;23.296;2022-11-27T08:14:51;95173.22;;;6.26;72.27
6024;BME280;3040;42.654;23.296;2022-11-27T08:17:18;95179.63;;;6.20;73.39
6024;BME280;3040;42.654;23.296;2022-11-27T08:19:46;95074.94;;;5.54;73.19
6024;BME280;3040;42.654;23.296;2022-11-27T08:22:15;95180.69;;;6.19;73.73
6024;BME280;3040;42.654;23.296;2022-11-27T08:24:44;95177.41;;;5.89;74.75
6024;BME280;3040;42.654;23.296;2022-11-27T08:27:12;95181.63;;;5.90;74.74
6024;BME280;3040;42.654;23.296;2022-11-27T08:29:39;95172.13;;;5.89;74.38
6024;BME280;3040;42.654;23.296;2022-11-27T08:32:06;95171.63;;;5.87;74.91
6024;BME280;3040;42.654;23.296;2022-11-27T08:34:33;95149.47;;;5.64;75.62
6024;BME280;3040;42.654;23.296;2022-11-27T08:37:02;95168.03;;;5.78;74.85
6024;BME280;3040;42.654;23.296;2022-11-27T08:39:29;95172.66;;;5.86;75.06
6024;BME280;3040;42.654;23.296;2022-11-27T08:41:56;95165.41;;;5.97;74.75
6024;BME280;3040;42.654;23.296;2022-11-27T08:44:23;95161.25;;;5.72;74.62
6024;BME280;3040;42.654;23.296;2022-11-27T08:46:49;95163.34;;;5.94;75.19
6024;BME280;3040;42.654;23.296;2022-11-27T08:49:17;95167.69;;;6.03;74.88
6024;BME280;3040;42.654;23.296;2022-11-27T08:51:44;95172.41;;;6.06;74.30
6024;BME280;3040;42.654;23.296;2022-11-27T08:54:12;95161.50;;;6.13;74.00
6024;BME280;3040;42.654;23.296;2022-11-27T08:56:39;95158.44;;;6.25;73.86
6024;BME280;3040;42.654;23.296;2022-11-27T08:59:06;95157.72;;;6.38;73.80
6024;BME280;3040;42.654;23.296;2022-11-27T09:01:32;95156.75;;;6.47;72.54
6024;BME280;3040;42.654;23.296;2022-11-27T09:04:00;95154.41;;;6.46;72.47
6024;BME280;3040;42.654;23.296;2022-11-27T09:06:28;95152.69;;;6.55;72.66
6024;BME280;3040;42.654;23.296;2022-11-27T09:08:56;95155.16;;;6.65;72.19
6024;BME280;3040;42.654;23.296;2022-11-27T09:11:25;95154.66;;;6.63;72.40
6024;BME280;3040;42.654;23.296;2022-11-27T09:13:52;95151.94;;;6.68;72.27
6024;BME280;3040;42.654;23.296;2022-11-27T09:16:20;95148.06;;;6.79;72.33
6024;BME280;3040;42.654;23.296;2022-11-27T09:18:50;95150.88;;;6.83;71.00
6024;BME280;3040;42.654;23.296;2022-11-27T09:21:20;95145.72;;;6.91;71.03
6024;BME280;3040;42.654;23.296;2022-11-27T09:23:47;95122.41;;;6.93;71.61
6024;BME280;3040;42.654;23.296;2022-11-27T09:26:17;95139.44;;;6.87;71.06
6024;BME280;3040;42.654;23.296;2022-11-27T09:28:46;95127.66;;;6.66;72.85
6024;BME280;3040;42.654;23.296;2022-11-27T09:31:13;95089.44;;;6.59;72.65
6024;BME280;3040;42.654;23.296;2022-11-27T09:33:41;95134.97;;;7.15;71.25
6024;BME280;3040;42.654;23.296;2022-11-27T09:36:10;95125.00;;;7.26;70.94
6024;BME280;3040;42.654;23.296;2022-11-27T09:38:37;95129.50;;;7.53;69.80
6024;BME280;3040;42.654;23.296;2022-11-27T09:46:52;95121.13;;;8.09;68.06
6024;BME280;3040;42.654;23.296;2022-11-27T09:49:24;95110.75;;;8.12;66.82
6024;BME280;3040;42.654;23.296;2022-11-27T09:51:57;95120.44;;;8.31;65.70
6024;BME280;3040;42.654;23.296;2022-11-27T09:54:29;95113.31;;;8.26;65.25
6024;BME280;3040;42.654;23.296;2022-11-27T09:56:58;95088.97;;;8.02;67.25
6024;BME280;3040;42.654;23.296;2022-11-27T09:59:32;95110.69;;;8.26;66.32
6024;BME280;3040;42.654;23.296;2022-11-27T10:02:01;95099.09;;;8.36;66.22
6024;BME280;3040;42.654;23.296;2022-11-27T10:04:28;95091.66;;;8.24;66.02
6024;BME280;3040;42.654;23.296;2022-11-27T10:07:04;95097.53;;;8.21;66.92
6024;BME280;3040;42.654;23.296;2022-11-27T10:09:42;95100.69;;;7.24;69.81
6024;BME280;3040;42.654;23.296;2022-11-27T10:12:18;95091.81;;;7.83;68.69
6024;BME280;3040;42.654;23.296;2022-11-27T10:14:59;95087.25;;;7.84;68.08
6024;BME280;3040;42.654;23.296;2022-11-27T10:17:32;95082.47;;;7.86;67.52
6024;BME280;3040;42.654;23.296;2022-11-27T10:20:12;95080.34;;;6.19;72.73
6024;BME280;3040;42.654;23.296;2022-11-27T10:22:48;95073.53;;;5.38;76.60
6024;BME280;3040;42.654;23.296;2022-11-27T10:25:18;95075.78;;;5.68;76.70
6024;BME280;3040;42.654;23.296;2022-11-27T10:27:59;95058.06;;;5.50;77.11
6024;BME280;3040;42.654;23.296;2022-11-27T10:30:30;95053.59;;;5.50;77.10
6024;BME280;3040;42.654;23.296;2022-11-27T10:32:59;95047.16;;;5.56;77.29
6024;BME280;3040;42.654;23.296;2022-11-27T10:35:27;95029.72;;;5.42;76.83
6024;BME280;3040;42.654;23.296;2022-11-27T10:37:57;95045.34;;;5.94;75.83
6024;BME280;3040;42.654;23.296;2022-11-27T10:40:29;95039.25;;;6.72;74.37
6024;BME280;3040;42.654;23.296;2022-11-27T10:43:02;95048.19;;;7.04;70.41
6024;BME280;3040;42.654;23.296;2022-11-27T10:45:40;95052.88;;;7.34;70.54
6024;BME280;3040;42.654;23.296;2022-11-27T10:48:09;95035.19;;;7.57;69.54
6024;BME280;3040;42.654;23.296;2022-11-27T10:50:37;95044.97;;;7.92;68.37
6024;BME280;3040;42.654;23.296;2022-11-27T10:53:06;95035.41;;;7.83;67.36
6024;BME280;3040;42.654;23.296;2022-11-27T10:55:44;95032.78;;;7.06;71.05
6024;BME280;3040;42.654;23.296;2022-11-27T10:58:22;95033.28;;;7.08;69.25
6024;BME280;3040;42.654;23.296;2022-11-27T11:01:01;95012.03;;;6.12;72.96
6024;BME280;3040;42.654;23.296;2022-11-27T11:03:28;95022.69;;;6.53;73.82
6024;BME280;3040;42.654;23.296;2022-11-27T11:05:56;95034.47;;;7.29;71.55
6024;BME280;3040;42.654;23.296;2022-11-27T11:08:24;95028.88;;;7.66;68.79
6024;BME280;3040;42.654;23.296;2022-11-27T11:10:57;95029.78;;;7.62;67.03
6024;BME280;3040;42.654;23.296;2022-11-27T11:13:24;95006.81;;;7.35;68.70
6024;BME280;3040;42.654;23.296;2022-11-27T11:15:55;95018.94;;;7.36;69.42
6024;BME280;3040;42.654;23.296;2022-11-27T11:18:25;95029.00;;;7.84;67.56
6024;BME280;3040;42.654;23.296;2022-11-27T11:20:54;94933.31;;;7.54;66.53
6024;BME280;3040;42.654;23.296;2022-11-27T11:23:28;95019.28;;;8.37;65.36
6024;BME280;3040;42.654;23.296;2022-11-27T11:25:59;95008.00;;;8.54;65.49
6024;BME280;3040;42.654;23.296;2022-11-27T11:28:29;95015.16;;;8.53;64.93
6024;BME280;3040;42.654;23.296;2022-11-27T11:30:59;95000.91;;;8.41;64.74
6024;BME280;3040;42.654;23.296;2022-11-27T11:33:29;94992.97;;;8.80;64.57
6024;BME280;3040;42.654;23.296;2022-11-27T11:36:07;94995.34;;;8.99;63.51
6024;BME280;3040;42.654;23.296;2022-11-27T11:38:34;94993.81;;;8.98;62.33
6024;BME280;3040;42.654;23.296;2022-11-27T11:41:04;94971.81;;;9.06;61.78
6024;BME280;3040;42.654;23.296;2022-11-27T11:43:33;94990.09;;;9.16;61.51
6024;BME280;3040;42.654;23.296;2022-11-27T11:46:07;94895.88;;;8.62;60.87
6024;BME280;3040;42.654;23.296;2022-11-27T11:48:58;94992.91;;;9.11;60.37
6024;BME280;3040;42.654;23.296;2022-11-27T11:51:50;94977.91;;;8.98;61.25
6024;BME280;3040;42.654;23.296;2022-11-27T11:54:44;94950.03;;;8.70;61.35
6024;BME280;3040;42.654;23.296;2022-11-27T11:57:29;94971.44;;;8.73;61.43
6024;BME280;3040;42.654;23.296;2022-11-27T12:00:04;94953.84;;;8.46;62.56
6024;BME280;3040;42.654;23.296;2022-11-27T12:02:43;94976.53;;;8.70;62.13
6024;BME280;3040;42.654;23.296;2022-11-27T12:05:25;94969.34;;;8.62;61.85
6024;BME280;3040;42.654;23.296;2022-11-27T12:08:13;94962.75;;;8.50;62.17
6024;BME280;3040;42.654;23.296;2022-11-27T12:10:54;94964.16;;;8.56;62.48
6024;BME280;3040;42.654;23.296;2022-11-27T12:13:35;94957.91;;;8.52;62.32
6024;BME280;3040;42.654;23.296;2022-11-27T12:16:09;94951.09;;;8.29;62.45
6024;BME280;3040;42.654;23.296;2022-11-27T12:18:50;94953.25;;;8.27;62.70
6024;BME280;3040;42.654;23.296;2022-11-27T12:21:28;94960.91;;;8.29;62.67
6024;BME280;3040;42.654;23.296;2022-11-27T12:24:14;94945.00;;;7.98;63.64
6024;BME280;3040;42.654;23.296;2022-11-27T12:26:57;94951.13;;;7.85;63.40
6024;BME280;3040;42.654;23.296;2022-11-27T12:29:49;94946.56;;;7.76;64.56
6024;BME280;3040;42.654;23.296;2022-11-27T12:32:38;94931.88;;;7.48;63.98
6024;BME280;3040;42.654;23.296;2022-11-27T12:35:22;94929.13;;;7.53;65.49
6024;BME280;3040;42.654;23.296;2022-11-27T12:38:14;94937.16;;;7.48;63.73
6024;BME280;3040;42.654;23.296;2022-11-27T12:40:55;94943.91;;;7.54;64.04
6024;BME280;3040;42.654;23.296;2022-11-27T12:43:26;94931.63;;;7.36;63.84
6024;BME280;3040;42.654;23.296;2022-11-27T12:45:56;94937.03;;;7.31;64.30
6024;BME280;3040;42.654;23.296;2022-11-27T12:48:28;94942.53;;;7.34;65.27
6024;BME280;3040;42.654;23.296;2022-11-27T12:51:00;94936.25;;;7.30;65.38
6024;BME280;3040;42.654;23.296;2022-11-27T12:53:35;94884.16;;;6.81;65.45
6024;BME280;3040;42.654;23.296;2022-11-27T12:56:09;94934.22;;;7.27;65.95
6024;BME280;3040;42.654;23.296;2022-11-27T12:58:42;94919.69;;;7.25;65.27
6024;BME280;3040;42.654;23.296;2022-11-27T13:01:14;94935.69;;;7.20;65.50
6024;BME280;3040;42.654;23.296;2022-11-27T13:03:58;94891.16;;;7.00;65.93
6024;BME280;3040;42.654;23.296;2022-11-27T13:06:29;94929.81;;;7.23;65.83
6024;BME280;3040;42.654;23.296;2022-11-27T13:09:01;94931.38;;;7.24;66.16
6024;BME280;3040;42.654;23.296;2022-11-27T13:11:32;94921.97;;;7.18;66.47
6024;BME280;3040;42.654;23.296;2022-11-27T13:14:04;94927.22;;;7.31;66.57
6024;BME280;3040;42.654;23.296;2022-11-27T13:16:34;94920.81;;;7.46;66.40
6024;BME280;3040;42.654;23.296;2022-11-27T13:19:08;94924.53;;;7.23;66.48
6024;BME280;3040;42.654;23.296;2022-11-27T13:21:38;94815.78;;;6.66;66.60
6024;BME280;3040;42.654;23.296;2022-11-27T13:24:10;94924.41;;;7.28;67.25
6024;BME280;3040;42.654;23.296;2022-11-27T13:26:41;94923.69;;;7.36;67.36
6024;BME280;3040;42.654;23.296;2022-11-27T13:29:17;94918.38;;;7.14;67.25
6024;BME280;3040;42.654;23.296;2022-11-27T13:31:52;94908.13;;;6.99;67.43
6024;BME280;3040;42.654;23.296;2022-11-27T13:34:23;94909.31;;;6.92;68.40
6024;BME280;3040;42.654;23.296;2022-11-27T13:36:56;94902.63;;;6.95;68.05
6024;BME280;3040;42.654;23.296;2022-11-27T13:39:27;94909.50;;;6.96;68.39
6024;BME280;3040;42.654;23.296;2022-11-27T13:42:01;94901.97;;;6.89;69.13
6024;BME280;3040;42.654;23.296;2022-11-27T13:44:31;94905.19;;;7.00;68.29
6024;BME280;3040;42.654;23.296;2022-11-27T13:47:05;94819.56;;;6.38;68.72
6024;BME280;3040;42.654;23.296;2022-11-27T13:49:35;94902.94;;;6.93;67.83